sensor_id;sensor_type;location;lat;lon;timestamp;temperature;humidity
30381;DHT22;17169;50.966;11.038;2023-03-01T00:02:53;-1.20;99.90
30381;DHT22;17169;50.966;11.038;2023-03-01T00:05:55;-1.30;99.90
30381;DHT22;17169;50.966;11.038;2023-03-01T00:08:57;-1.30;99.90
30381;DHT22;17169;50.966;11.038;2023-03-01T00:12:00;-1.40;99.90
30381;DHT22;17169;50.966;11.038;2023-03-01T00:15:02;-1.40;99.90
30381;DHT22;17169;50.966;11.038;2023-03-01T00:18:08;-1.50;99.90
30381;DHT22;17169;50.966;11.038;2023-03-01T00:21:10;-1.50;99.90
30381;DHT22;17169;50.966;11.038;2023-03-01T00:24:13;-1.50;99.90
30381;DHT22;17169;50.966;11.038;2023-03-01T00:27:15;-1.50;99.90
30381;DHT22;17169;50.966;11.038;2023-03-01T00:30:18;-1.40;99.90
30381;DHT22;17169;50.966;11.038;2023-03-01T00:33:22;-1.50;99.90
30381;DHT22;17169;50.966;11.038;2023-03-01T00:36:26;-1.40;99.90
30381;DHT22;17169;50.966;11.038;2023-03-01T00:39:28;-1.40;99.90
30381;DHT22;17169;50.966;11.038;2023-03-01T00:42:31;-1.40;99.90
30381;DHT22;17169;50.966;11.038;2023-03-01T00:45:33;-1.40;99.90
30381;DHT22;17169;50.966;11.038;2023-03-01T00:48:37;-1.40;99.90
30381;DHT22;17169;50.966;11.038;2023-03-01T00:51:40;-1.40;99.90
30381;DHT22;17169;50.966;11.038;2023-03-01T00:54:42;-1.50;99.90
30381;DHT22;17169;50.966;11.038;2023-03-01T00:57:45;-1.50;99.90
30381;DHT22;17169;50.966;11.038;2023-03-01T01:00:47;-1.50;99.90
30381;DHT22;17169;50.966;11.038;2023-03-01T01:03:53;-1.60;99.90
30381;DHT22;17169;50.966;11.038;2023-03-01T01:06:55;-1.60;99.90
30381;DHT22;17169;50.966;11.038;2023-03-01T01:09:58;-1.60;99.90
30381;DHT22;17169;50.966;11.038;2023-03-01T01:13:00;-1.60;99.90
30381;DHT22;17169;50.966;11.038;2023-03-01T01:16:03;-1.50;99.90
30381;DHT22;17169;50.966;11.038;2023-03-01T01:19:07;-1.50;99.90
30381;DHT22;17169;50.966;11.038;2023-03-01T01:22:09;-1.50;99.90
30381;DHT22;17169;50.966;11.038;2023-03-01T01:25:11;-1.40;99.90
30381;DHT22;17169;50.966;11.038;2023-03-01T01:28:14;-1.30;99.90
30381;DHT22;17169;50.966;11.038;2023-03-01T01:31:16;-1.30;99.90
30381;DHT22;17169;50.966;11.038;2023-03-01T01:34:21;-1.20;99.90
30381;DHT22;17169;50.966;11.038;2023-03-01T01:37:23;-1.20;99.90
30381;DHT22;17169;50.966;11.038;2023-03-01T01:40:31;-1.10;99.90
30381;DHT22;17169;50.966;11.038;2023-03-01T01:43:35;-1.10;99.90
30381;DHT22;17169;50.966;11.038;2023-03-01T01:46:39;-1.10;99.90
30381;DHT22;17169;50.966;11.038;2023-03-01T01:49:47;-1.10;99.90
30381;DHT22;17169;50.966;11.038;2023-03-01T01:52:52;-1.10;99.90
30381;DHT22;17169;50.966;11.038;2023-03-01T01:55:58;-1.20;99.90
30381;DHT22;17169;50.966;11.038;2023-03-01T01:59:02;-1.20;99.90
30381;DHT22;17169;50.966;11.038;2023-03-01T02:02:05;-1.20;99.90
30381;DHT22;17169;50.966;11.038;2023-03-01T02:05:15;-1.20;99.90
30381;DHT22;17169;50.966;11.038;2023-03-01T02:08:20;-1.20;99.90
30381;DHT22;17169;50.966;11.038;2023-03-01T02:11:23;-1.20;99.90
30381;DHT22;17169;50.966;11.038;2023-03-01T02:14:26;-1.20;99.90
30381;DHT22;17169;50.966;11.038;2023-03-01T02:17:29;-1.30;99.90
30381;DHT22;17169;50.966;11.038;2023-03-01T02:20:37;-1.20;99.90
30381;DHT22;17169;50.966;11.038;2023-03-01T02:23:41;-1.20;99.90
30381;DHT22;17169;50.966;11.038;2023-03-01T02:26:49;-1.30;99.90
30381;DHT22;17169;50.966;11.038;2023-03-01T02:29:54;-1.30;99.90
30381;DHT22;17169;50.966;11.038;2023-03-01T02:32:57;-1.30;99.90
30381;DHT22;17169;50.966;11.038;2023-03-01T02:36:06;-1.40;99.90
30381;DHT22;17169;50.966;11.038;2023-03-01T02:39:13;-1.40;99.90
30381;DHT22;17169;50.966;11.038;2023-03-01T02:42:21;-1.40;99.90
30381;DHT22;17169;50.966;11.038;2023-03-01T02:45:27;-1.40;99.90
30381;DHT22;17169;50.966;11.038;2023-03-01T02:48:40;-1.40;99.90
30381;DHT22;17169;50.966;11.038;2023-03-01T02:51:47;-1.40;99.90
30381;DHT22;17169;50.966;11.038;2023-03-01T02:54:54;-1.50;99.90
30381;DHT22;17169;50.966;11.038;2023-03-01T02:58:01;-1.50;99.90
30381;DHT22;17169;50.966;11.038;2023-03-01T03:01:05;-1.60;99.90
30381;DHT22;17169;50.966;11.038;2023-03-01T03:04:13;-1.60;99.90
30381;DHT22;17169;50.966;11.038;2023-03-01T03:07:17;-1.70;99.90
30381;DHT22;17169;50.966;11.038;2023-03-01T03:10:22;-1.70;99.90
30381;DHT22;17169;50.966;11.038;2023-03-01T03:13:24;-1.70;99.90
30381;DHT22;17169;50.966;11.038;2023-03-01T03:16:30;-1.70;99.90
30381;DHT22;17169;50.966;11.038;2023-03-01T03:19:33;-1.70;99.90
30381;DHT22;17169;50.966;11.038;2023-03-01T03:22:35;-1.80;99.90
30381;DHT22;17169;50.966;11.038;2023-03-01T03:25:37;-1.80;99.90
30381;DHT22;17169;50.966;11.038;2023-03-01T03:28:40;-1.90;99.90
30381;DHT22;17169;50.966;11.038;2023-03-01T03:31:44;-1.90;99.90
30381;DHT22;17169;50.966;11.038;2023-03-01T03:34:46;-1.90;99.90
30381;DHT22;17169;50.966;11.038;2023-03-01T03:37:49;-1.90;99.90
30381;DHT22;17169;50.966;11.038;2023-03-01T03:41:06;-2.00;99.90
30381;DHT22;17169;50.966;11.038;2023-03-01T03:44:09;-2.00;99.90
30381;DHT22;17169;50.966;11.038;2023-03-01T03:47:12;-2.10;99.90
30381;DHT22;17169;50.966;11.038;2023-03-01T03:50:17;-2.10;99.90
30381;DHT22;17169;50.966;11.038;2023-03-01T03:53:20;-2.10;99.90
30381;DHT22;17169;50.966;11.038;2023-03-01T03:56:23;-2.20;99.90
30381;DHT22;17169;50.966;11.038;2023-03-01T03:59:27;-2.20;99.90
30381;DHT22;17169;50.966;11.038;2023-03-01T04:02:31;-2.20;99.90
30381;DHT22;17169;50.966;11.038;2023-03-01T04:05:34;-2.20;99.90
30381;DHT22;17169;50.966;11.038;2023-03-01T04:08:36;-2.20;99.90
30381;DHT22;17169;50.966;11.038;2023-03-01T04:11:38;-2.30;99.90
30381;DHT22;17169;50.966;11.038;2023-03-01T04:14:41;-2.30;99.90
30381;DHT22;17169;50.966;11.038;2023-03-01T04:17:46;-2.30;99.90
30381;DHT22;17169;50.966;11.038;2023-03-01T04:20:49;-2.40;99.90
30381;DHT22;17169;50.966;11.038;2023-03-01T04:23:52;-2.40;99.90
30381;DHT22;17169;50.966;11.038;2023-03-01T04:26:55;-2.40;99.90
30381;DHT22;17169;50.966;11.038;2023-03-01T04:29:57;-2.40;99.90
30381;DHT22;17169;50.966;11.038;2023-03-01T04:33:02;-2.40;99.90
30381;DHT22;17169;50.966;11.038;2023-03-01T04:36:05;-2.50;99.90
30381;DHT22;17169;50.966;11.038;2023-03-01T04:39:09;-2.50;99.90
30381;DHT22;17169;50.966;11.038;2023-03-01T04:42:13;-2.60;99.90
30381;DHT22;17169;50.966;11.038;2023-03-01T04:45:15;-2.70;99.90
30381;DHT22;17169;50.966;11.038;2023-03-01T04:48:19;-2.70;99.90
30381;DHT22;17169;50.966;11.038;2023-03-01T04:51:21;-2.70;99.90
30381;DHT22;17169;50.966;11.038;2023-03-01T04:54:24;-2.80;99.90
30381;DHT22;17169;50.966;11.038;2023-03-01T04:57:27;-2.80;99.90
30381;DHT22;17169;50.966;11.038;2023-03-01T05:00:29;-2.80;99.90
30381;DHT22;17169;50.966;11.038;2023-03-01T05:03:33;-2.90;99.90
30381;DHT22;17169;50.966;11.038;2023-03-01T05:06:35;-3.00;99.90
30381;DHT22;17169;50.966;11.038;2023-03-01T05:09:38;-3.00;99.90
30381;DHT22;17169;50.966;11.038;2023-03-01T05:12:40;-3.10;99.90
30381;DHT22;17169;50.966;11.038;2023-03-01T05:15:42;-3.20;99.90
30381;DHT22;17169;50.966;11.038;2023-03-01T05:18:46;-3.20;99.90
30381;DHT22;17169;50.966;11.038;2023-03-01T05:21:51;-3.30;99.90
30381;DHT22;17169;50.966;11.038;2023-03-01T05:25:06;-3.30;99.90
30381;DHT22;17169;50.966;11.038;2023-03-01T05:28:11;-3.30;99.90
30381;DHT22;17169;50.966;11.038;2023-03-01T05:31:13;-3.40;99.90
30381;DHT22;17169;50.966;11.038;2023-03-01T05:34:18;-3.40;99.90
30381;DHT22;17169;50.966;11.038;2023-03-01T05:37:20;-3.40;99.90
30381;DHT22;17169;50.966;11.038;2023-03-01T05:40:23;-3.50;99.90
30381;DHT22;17169;50.966;11.038;2023-03-01T05:43:26;-3.50;99.90
30381;DHT22;17169;50.966;11.038;2023-03-01T05:46:31;-3.50;99.90
30381;DHT22;17169;50.966;11.038;2023-03-01T05:49:35;-3.50;99.90
30381;DHT22;17169;50.966;11.038;2023-03-01T05:52:37;-3.50;99.90
30381;DHT22;17169;50.966;11.038;2023-03-01T05:55:40;-3.50;99.90
30381;DHT22;17169;50.966;11.038;2023-03-01T05:58:43;-3.50;99.90
30381;DHT22;17169;50.966;11.038;2023-03-01T06:01:45;-3.50;99.90
30381;DHT22;17169;50.966;11.038;2023-03-01T06:04:49;-3.50;99.90
30381;DHT22;17169;50.966;11.038;2023-03-01T06:07:52;-3.40;99.90
30381;DHT22;17169;50.966;11.038;2023-03-01T06:10:55;-3.40;99.90
30381;DHT22;17169;50.966;11.038;2023-03-01T06:13:57;-3.50;99.90
30381;DHT22;17169;50.966;11.038;2023-03-01T06:16:59;-3.50;99.90
30381;DHT22;17169;50.966;11.038;2023-03-01T06:20:04;-3.50;99.90
30381;DHT22;17169;50.966;11.038;2023-03-01T06:23:07;-3.40;99.90
30381;DHT22;17169;50.966;11.038;2023-03-01T06:26:10;-3.40;99.90
30381;DHT22;17169;50.966;11.038;2023-03-01T06:29:12;-3.40;99.90
30381;DHT22;17169;50.966;11.038;2023-03-01T06:32:15;-3.30;99.90
30381;DHT22;17169;50.966;11.038;2023-03-01T06:35:19;-3.20;99.90
30381;DHT22;17169;50.966;11.038;2023-03-01T06:38:23;-3.20;99.90
30381;DHT22;17169;50.966;11.038;2023-03-01T06:41:25;-3.10;99.90
30381;DHT22;17169;50.966;11.038;2023-03-01T06:44:28;-3.00;99.90
30381;DHT22;17169;50.966;11.038;2023-03-01T06:47:30;-3.00;99.90
30381;DHT22;17169;50.966;11.038;2023-03-01T06:50:35;-2.90;99.90
30381;DHT22;17169;50.966;11.038;2023-03-01T06:53:38;-2.90;99.90
30381;DHT22;17169;50.966;11.038;2023-03-01T06:56:40;-2.90;99.90
30381;DHT22;17169;50.966;11.038;2023-03-01T06:59:43;-2.80;99.90
30381;DHT22;17169;50.966;11.038;2023-03-01T07:02:45;-2.80;99.90
30381;DHT22;17169;50.966;11.038;2023-03-01T07:05:50;-2.80;99.90
30381;DHT22;17169;50.966;11.038;2023-03-01T07:08:53;-2.60;99.90
30381;DHT22;17169;50.966;11.038;2023-03-01T07:11:56;-2.50;99.90
30381;DHT22;17169;50.966;11.038;2023-03-01T07:14:59;-2.50;99.90
30381;DHT22;17169;50.966;11.038;2023-03-01T07:18:01;-2.40;99.90
30381;DHT22;17169;50.966;11.038;2023-03-01T07:21:06;-2.30;99.90
30381;DHT22;17169;50.966;11.038;2023-03-01T07:24:09;-2.20;99.90
30381;DHT22;17169;50.966;11.038;2023-03-01T07:27:12;-2.10;99.90
30381;DHT22;17169;50.966;11.038;2023-03-01T07:30:15;-2.00;99.90
30381;DHT22;17169;50.966;11.038;2023-03-01T07:33:17;-1.90;99.90
30381;DHT22;17169;50.966;11.038;2023-03-01T07:36:22;-1.80;99.90
30381;DHT22;17169;50.966;11.038;2023-03-01T07:39:24;-1.70;99.90
30381;DHT22;17169;50.966;11.038;2023-03-01T07:42:26;-1.60;99.90
30381;DHT22;17169;50.966;11.038;2023-03-01T07:45:29;-1.50;99.90
30381;DHT22;17169;50.966;11.038;2023-03-01T07:48:32;-1.30;99.90
30381;DHT22;17169;50.966;11.038;2023-03-01T07:51:36;-1.20;99.90
30381;DHT22;17169;50.966;11.038;2023-03-01T07:54:38;-1.10;99.90
30381;DHT22;17169;50.966;11.038;2023-03-01T07:57:41;-1.00;99.90
30381;DHT22;17169;50.966;11.038;2023-03-01T08:00:43;-0.90;99.90
30381;DHT22;17169;50.966;11.038;2023-03-01T08:03:45;-0.70;99.90
30381;DHT22;17169;50.966;11.038;2023-03-01T08:06:49;-0.60;99.90
30381;DHT22;17169;50.966;11.038;2023-03-01T08:09:52;-0.50;99.90
30381;DHT22;17169;50.966;11.038;2023-03-01T08:12:54;-0.40;99.90
30381;DHT22;17169;50.966;11.038;2023-03-01T08:16:01;-0.30;99.90
30381;DHT22;17169;50.966;11.038;2023-03-01T08:19:04;-0.20;99.90
30381;DHT22;17169;50.966;11.038;2023-03-01T08:22:08;-0.20;99.90
30381;DHT22;17169;50.966;11.038;2023-03-01T08:25:10;-0.10;99.90
30381;DHT22;17169;50.966;11.038;2023-03-01T08:28:13;0.00;99.90
30381;DHT22;17169;50.966;11.038;2023-03-01T08:31:17;0.10;99.90
30381;DHT22;17169;50.966;11.038;2023-03-01T08:34:20;0.20;99.90
30381;DHT22;17169;50.966;11.038;2023-03-01T08:37:23;0.30;99.90
30381;DHT22;17169;50.966;11.038;2023-03-01T08:40:27;0.40;99.90
30381;DHT22;17169;50.966;11.038;2023-03-01T08:43:30;0.40;99.90
30381;DHT22;17169;50.966;11.038;2023-03-01T08:46:34;0.50;99.90
30381;DHT22;17169;50.966;11.038;2023-03-01T08:49:37;0.60;99.90
30381;DHT22;17169;50.966;11.038;2023-03-01T08:52:40;0.70;99.90
30381;DHT22;17169;50.966;11.038;2023-03-01T08:55:43;0.80;99.90
30381;DHT22;17169;50.966;11.038;2023-03-01T08:58:46;0.90;99.90
30381;DHT22;17169;50.966;11.038;2023-03-01T09:01:48;1.00;99.90
30381;DHT22;17169;50.966;11.038;2023-03-01T09:04:50;1.10;99.90
30381;DHT22;17169;50.966;11.038;2023-03-01T09:07:54;1.10;99.90
30381;DHT22;17169;50.966;11.038;2023-03-01T09:10:56;1.20;99.90
30381;DHT22;17169;50.966;11.038;2023-03-01T09:13:59;1.30;99.90
30381;DHT22;17169;50.966;11.038;2023-03-01T09:17:01;1.40;99.90
30381;DHT22;17169;50.966;11.038;2023-03-01T09:20:05;1.40;99.90
30381;DHT22;17169;50.966;11.038;2023-03-01T09:23:09;1.50;99.90
30381;DHT22;17169;50.966;11.038;2023-03-01T09:26:12;1.60;99.90
30381;DHT22;17169;50.966;11.038;2023-03-01T09:29:16;1.70;99.90
30381;DHT22;17169;50.966;11.038;2023-03-01T09:32:18;1.70;99.90
30381;DHT22;17169;50.966;11.038;2023-03-01T09:35:21;1.80;99.90
30381;DHT22;17169;50.966;11.038;2023-03-01T09:38:26;1.90;99.90
30381;DHT22;17169;50.966;11.038;2023-03-01T09:41:40;2.00;99.90
30381;DHT22;17169;50.966;11.038;2023-03-01T09:44:49;2.00;99.90
30381;DHT22;17169;50.966;11.038;2023-03-01T09:47:54;2.10;99.90
30381;DHT22;17169;50.966;11.038;2023-03-01T09:50:56;2.10;99.90
30381;DHT22;17169;50.966;11.038;2023-03-01T09:54:01;2.10;99.90
30381;DHT22;17169;50.966;11.038;2023-03-01T09:57:11;2.10;99.90
30381;DHT22;17169;50.966;11.038;2023-03-01T10:00:24;2.10;99.90
30381;DHT22;17169;50.966;11.038;2023-03-01T10:03:36;2.30;99.90
30381;DHT22;17169;50.966;11.038;2023-03-01T10:06:45;2.40;99.90
30381;DHT22;17169;50.966;11.038;2023-03-01T10:09:53;2.50;99.90
30381;DHT22;17169;50.966;11.038;2023-03-01T10:12:57;2.60;99.90
30381;DHT22;17169;50.966;11.038;2023-03-01T10:16:04;2.60;99.90
30381;DHT22;17169;50.966;11.038;2023-03-01T10:19:12;2.70;99.90
30381;DHT22;17169;50.966;11.038;2023-03-01T10:22:18;2.70;99.90
30381;DHT22;17169;50.966;11.038;2023-03-01T10:25:36;2.80;99.90
30381;DHT22;17169;50.966;11.038;2023-03-01T10:28:50;2.90;99.90
30381;DHT22;17169;50.966;11.038;2023-03-01T10:31:54;3.00;99.90
30381;DHT22;17169;50.966;11.038;2023-03-01T10:34:56;3.00;99.90
30381;DHT22;17169;50.966;11.038;2023-03-01T10:38:04;3.00;99.90
30381;DHT22;17169;50.966;11.038;2023-03-01T10:41:09;3.10;99.90
30381;DHT22;17169;50.966;11.038;2023-03-01T10:44:42;3.10;99.90
30381;DHT22;17169;50.966;11.038;2023-03-01T10:47:44;3.20;99.90
30381;DHT22;17169;50.966;11.038;2023-03-01T10:50:48;3.30;99.90
30381;DHT22;17169;50.966;11.038;2023-03-01T10:53:51;3.30;99.90
30381;DHT22;17169;50.966;11.038;2023-03-01T10:56:56;3.40;99.90
30381;DHT22;17169;50.966;11.038;2023-03-01T11:00:19;3.50;99.90
30381;DHT22;17169;50.966;11.038;2023-03-01T11:03:25;3.40;99.90
30381;DHT22;17169;50.966;11.038;2023-03-01T11:06:29;3.50;99.90
30381;DHT22;17169;50.966;11.038;2023-03-01T11:09:33;3.40;99.90
30381;DHT22;17169;50.966;11.038;2023-03-01T11:12:40;3.50;99.90
30381;DHT22;17169;50.966;11.038;2023-03-01T11:15:43;3.40;99.90
30381;DHT22;17169;50.966;11.038;2023-03-01T11:19:15;3.40;99.90
30381;DHT22;17169;50.966;11.038;2023-03-01T11:22:19;3.50;99.90
30381;DHT22;17169;50.966;11.038;2023-03-01T11:25:25;3.50;99.90
30381;DHT22;17169;50.966;11.038;2023-03-01T11:28:30;3.50;99.90
30381;DHT22;17169;50.966;11.038;2023-03-01T11:31:33;3.50;99.90
30381;DHT22;17169;50.966;11.038;2023-03-01T11:34:43;3.60;99.90
30381;DHT22;17169;50.966;11.038;2023-03-01T11:37:59;3.70;99.90
30381;DHT22;17169;50.966;11.038;2023-03-01T11:41:07;3.80;99.90
30381;DHT22;17169;50.966;11.038;2023-03-01T11:44:16;3.80;99.90
30381;DHT22;17169;50.966;11.038;2023-03-01T11:47:29;3.90;99.90
30381;DHT22;17169;50.966;11.038;2023-03-01T11:50:40;3.90;99.90
30381;DHT22;17169;50.966;11.038;2023-03-01T11:53:54;3.90;99.90
30381;DHT22;17169;50.966;11.038;2023-03-01T11:57:01;4.00;99.90
30381;DHT22;17169;50.966;11.038;2023-03-01T12:00:27;4.00;99.90
30381;DHT22;17169;50.966;11.038;2023-03-01T12:03:47;4.00;99.90
30381;DHT22;17169;50.966;11.038;2023-03-01T12:06:57;4.00;99.90
30381;DHT22;17169;50.966;11.038;2023-03-01T12:10:21;4.10;99.90
30381;DHT22;17169;50.966;11.038;2023-03-01T12:13:56;4.10;99.90
30381;DHT22;17169;50.966;11.038;2023-03-01T12:17:23;4.10;99.90
30381;DHT22;17169;50.966;11.038;2023-03-01T12:20:34;4.10;99.90
30381;DHT22;17169;50.966;11.038;2023-03-01T12:27:21;4.20;99.90
30381;DHT22;17169;50.966;11.038;2023-03-01T12:30:36;4.30;99.90
30381;DHT22;17169;50.966;11.038;2023-03-01T12:33:49;4.30;99.30
30381;DHT22;17169;50.966;11.038;2023-03-01T12:37:04;4.30;99.40
30381;DHT22;17169;50.966;11.038;2023-03-01T12:44:11;4.40;99.90
30381;DHT22;17169;50.966;11.038;2023-03-01T12:47:18;4.50;99.90
30381;DHT22;17169;50.966;11.038;2023-03-01T12:50:26;4.40;99.90
30381;DHT22;17169;50.966;11.038;2023-03-01T12:53:35;4.50;99.90
30381;DHT22;17169;50.966;11.038;2023-03-01T12:56:38;4.60;99.90
30381;DHT22;17169;50.966;11.038;2023-03-01T12:59:49;4.60;99.90
30381;DHT22;17169;50.966;11.038;2023-03-01T13:02:59;4.60;99.80
30381;DHT22;17169;50.966;11.038;2023-03-01T13:06:10;4.60;99.90
30381;DHT22;17169;50.966;11.038;2023-03-01T13:09:19;4.70;99.90
30381;DHT22;17169;50.966;11.038;2023-03-01T13:12:53;4.80;99.90
30381;DHT22;17169;50.966;11.038;2023-03-01T13:16:21;4.80;99.90
30381;DHT22;17169;50.966;11.038;2023-03-01T13:19:25;4.90;99.70
30381;DHT22;17169;50.966;11.038;2023-03-01T13:22:33;4.90;99.90
30381;DHT22;17169;50.966;11.038;2023-03-01T13:25:35;4.90;99.90
30381;DHT22;17169;50.966;11.038;2023-03-01T13:28:57;5.00;99.90
30381;DHT22;17169;50.966;11.038;2023-03-01T13:32:01;5.00;99.40
30381;DHT22;17169;50.966;11.038;2023-03-01T13:35:42;5.00;99.30
30381;DHT22;17169;50.966;11.038;2023-03-01T13:38:48;5.10;99.30
30381;DHT22;17169;50.966;11.038;2023-03-01T13:41:58;5.10;99.50
30381;DHT22;17169;50.966;11.038;2023-03-01T13:45:02;5.20;99.10
30381;DHT22;17169;50.966;11.038;2023-03-01T13:48:11;5.20;98.90
30381;DHT22;17169;50.966;11.038;2023-03-01T13:51:21;5.20;98.90
30381;DHT22;17169;50.966;11.038;2023-03-01T13:54:30;5.20;98.60
30381;DHT22;17169;50.966;11.038;2023-03-01T13:57:34;5.20;99.00
30381;DHT22;17169;50.966;11.038;2023-03-01T14:00:40;5.20;99.30
30381;DHT22;17169;50.966;11.038;2023-03-01T14:03:42;5.20;99.40
30381;DHT22;17169;50.966;11.038;2023-03-01T14:06:45;5.20;99.60
30381;DHT22;17169;50.966;11.038;2023-03-01T14:09:52;5.20;99.90
30381;DHT22;17169;50.966;11.038;2023-03-01T14:13:01;5.30;99.90
30381;DHT22;17169;50.966;11.038;2023-03-01T14:16:19;5.40;99.80
30381;DHT22;17169;50.966;11.038;2023-03-01T14:19:26;5.50;99.50
30381;DHT22;17169;50.966;11.038;2023-03-01T14:22:31;5.50;99.40
30381;DHT22;17169;50.966;11.038;2023-03-01T14:25:37;5.50;99.50
30381;DHT22;17169;50.966;11.038;2023-03-01T14:28:42;5.50;99.50
30381;DHT22;17169;50.966;11.038;2023-03-01T14:31:45;5.60;99.60
30381;DHT22;17169;50.966;11.038;2023-03-01T14:34:49;5.60;99.40
30381;DHT22;17169;50.966;11.038;2023-03-01T14:37:52;5.70;99.40
30381;DHT22;17169;50.966;11.038;2023-03-01T14:40:58;5.70;99.30
30381;DHT22;17169;50.966;11.038;2023-03-01T14:44:06;5.80;99.10
30381;DHT22;17169;50.966;11.038;2023-03-01T14:47:12;5.90;99.20
30381;DHT22;17169;50.966;11.038;2023-03-01T14:50:22;5.90;99.10
30381;DHT22;17169;50.966;11.038;2023-03-01T14:53:26;6.00;99.10
30381;DHT22;17169;50.966;11.038;2023-03-01T14:56:43;5.90;98.70
30381;DHT22;17169;50.966;11.038;2023-03-01T14:59:46;5.80;98.50
30381;DHT22;17169;50.966;11.038;2023-03-01T15:02:51;5.70;98.40
30381;DHT22;17169;50.966;11.038;2023-03-01T15:05:54;5.60;98.50
30381;DHT22;17169;50.966;11.038;2023-03-01T15:08:56;5.60;98.70
30381;DHT22;17169;50.966;11.038;2023-03-01T15:12:14;5.60;98.60
30381;DHT22;17169;50.966;11.038;2023-03-01T15:15:34;5.60;98.60
30381;DHT22;17169;50.966;11.038;2023-03-01T15:18:37;5.50;98.70
30381;DHT22;17169;50.966;11.038;2023-03-01T15:21:48;5.50;98.40
30381;DHT22;17169;50.966;11.038;2023-03-01T15:24:51;5.40;98.40
30381;DHT22;17169;50.966;11.038;2023-03-01T15:27:57;5.40;98.70
30381;DHT22;17169;50.966;11.038;2023-03-01T15:31:03;5.30;98.80
30381;DHT22;17169;50.966;11.038;2023-03-01T15:34:21;5.40;98.40
30381;DHT22;17169;50.966;11.038;2023-03-01T15:37:40;5.40;98.40
30381;DHT22;17169;50.966;11.038;2023-03-01T15:40:49;5.30;98.70
30381;DHT22;17169;50.966;11.038;2023-03-01T15:43:53;5.30;98.60
30381;DHT22;17169;50.966;11.038;2023-03-01T15:46:57;5.30;98.70
30381;DHT22;17169;50.966;11.038;2023-03-01T15:50:00;5.20;98.90
30381;DHT22;17169;50.966;11.038;2023-03-01T15:53:06;5.20;98.70
30381;DHT22;17169;50.966;11.038;2023-03-01T15:56:11;5.20;98.30
30381;DHT22;17169;50.966;11.038;2023-03-01T15:59:15;5.20;97.90
30381;DHT22;17169;50.966;11.038;2023-03-01T16:02:18;5.10;97.80
30381;DHT22;17169;50.966;11.038;2023-03-01T16:05:23;5.00;97.90
30381;DHT22;17169;50.966;11.038;2023-03-01T16:08:26;5.00;98.00
30381;DHT22;17169;50.966;11.038;2023-03-01T16:11:28;5.00;98.10
30381;DHT22;17169;50.966;11.038;2023-03-01T16:14:33;5.00;98.20
30381;DHT22;17169;50.966;11.038;2023-03-01T16:17:36;4.90;98.40
30381;DHT22;17169;50.966;11.038;2023-03-01T16:20:38;4.90;98.50
30381;DHT22;17169;50.966;11.038;2023-03-01T16:23:41;4.80;98.70
30381;DHT22;17169;50.966;11.038;2023-03-01T16:26:43;4.80;98.70
30381;DHT22;17169;50.966;11.038;2023-03-01T16:29:47;4.80;98.60
30381;DHT22;17169;50.966;11.038;2023-03-01T16:32:50;4.70;98.60
30381;DHT22;17169;50.966;11.038;2023-03-01T16:35:52;4.70;98.60
30381;DHT22;17169;50.966;11.038;2023-03-01T16:38:58;4.70;98.60
30381;DHT22;17169;50.966;11.038;2023-03-01T16:42:01;4.60;98.70
30381;DHT22;17169;50.966;11.038;2023-03-01T16:45:06;4.50;98.90
30381;DHT22;17169;50.966;11.038;2023-03-01T16:48:09;4.50;99.10
30381;DHT22;17169;50.966;11.038;2023-03-01T16:51:12;4.40;99.10
30381;DHT22;17169;50.966;11.038;2023-03-01T16:54:14;4.30;99.20
30381;DHT22;17169;50.966;11.038;2023-03-01T16:57:16;4.20;99.30
30381;DHT22;17169;50.966;11.038;2023-03-01T17:00:21;4.10;99.40
30381;DHT22;17169;50.966;11.038;2023-03-01T17:03:26;4.10;99.50
30381;DHT22;17169;50.966;11.038;2023-03-01T17:06:29;4.00;99.60
30381;DHT22;17169;50.966;11.038;2023-03-01T17:09:34;3.90;99.60
30381;DHT22;17169;50.966;11.038;2023-03-01T17:12:37;3.90;99.70
30381;DHT22;17169;50.966;11.038;2023-03-01T17:15:41;3.90;99.80
30381;DHT22;17169;50.966;11.038;2023-03-01T17:18:44;3.80;99.80
30381;DHT22;17169;50.966;11.038;2023-03-01T17:21:47;3.70;99.80
30381;DHT22;17169;50.966;11.038;2023-03-01T17:24:49;3.70;99.80
30381;DHT22;17169;50.966;11.038;2023-03-01T17:27:51;3.70;99.90
30381;DHT22;17169;50.966;11.038;2023-03-01T17:30:55;3.60;99.90
30381;DHT22;17169;50.966;11.038;2023-03-01T17:33:57;3.60;99.90
30381;DHT22;17169;50.966;11.038;2023-03-01T17:37:00;3.50;99.90
30381;DHT22;17169;50.966;11.038;2023-03-01T17:40:03;3.50;99.90
30381;DHT22;17169;50.966;11.038;2023-03-01T17:43:06;3.40;99.90
30381;DHT22;17169;50.966;11.038;2023-03-01T17:46:10;3.30;99.90
30381;DHT22;17169;50.966;11.038;2023-03-01T17:49:12;3.30;99.90
30381;DHT22;17169;50.966;11.038;2023-03-01T17:52:15;3.20;99.90
30381;DHT22;17169;50.966;11.038;2023-03-01T17:55:17;3.20;99.90
30381;DHT22;17169;50.966;11.038;2023-03-01T17:58:20;3.10;99.90
30381;DHT22;17169;50.966;11.038;2023-03-01T18:01:24;3.10;99.90
30381;DHT22;17169;50.966;11.038;2023-03-01T18:04:26;3.00;99.90
30381;DHT22;17169;50.966;11.038;2023-03-01T18:07:29;3.00;99.90
30381;DHT22;17169;50.966;11.038;2023-03-01T18:10:32;3.00;99.90
30381;DHT22;17169;50.966;11.038;2023-03-01T18:13:37;2.90;99.90
30381;DHT22;17169;50.966;11.038;2023-03-01T18:16:42;2.90;99.90
30381;DHT22;17169;50.966;11.038;2023-03-01T18:19:44;2.90;99.90
30381;DHT22;17169;50.966;11.038;2023-03-01T18:22:46;2.90;99.90
30381;DHT22;17169;50.966;11.038;2023-03-01T18:25:50;2.90;99.90
30381;DHT22;17169;50.966;11.038;2023-03-01T18:28:55;2.80;99.90
30381;DHT22;17169;50.966;11.038;2023-03-01T18:32:02;2.70;99.90
30381;DHT22;17169;50.966;11.038;2023-03-01T18:35:05;2.70;99.90
30381;DHT22;17169;50.966;11.038;2023-03-01T18:38:08;2.70;99.90
30381;DHT22;17169;50.966;11.038;2023-03-01T18:41:10;2.60;99.90
30381;DHT22;17169;50.966;11.038;2023-03-01T18:44:13;2.50;99.90
30381;DHT22;17169;50.966;11.038;2023-03-01T18:47:16;2.50;99.90
30381;DHT22;17169;50.966;11.038;2023-03-01T18:50:19;2.50;99.90
30381;DHT22;17169;50.966;11.038;2023-03-01T18:53:21;2.40;99.90
30381;DHT22;17169;50.966;11.038;2023-03-01T18:56:24;2.40;99.90
30381;DHT22;17169;50.966;11.038;2023-03-01T18:59:26;2.40;99.90
30381;DHT22;17169;50.966;11.038;2023-03-01T19:02:31;2.30;99.90
30381;DHT22;17169;50.966;11.038;2023-03-01T19:05:33;2.30;99.90
30381;DHT22;17169;50.966;11.038;2023-03-01T19:08:36;2.20;99.90
30381;DHT22;17169;50.966;11.038;2023-03-01T19:11:40;2.20;99.90
30381;DHT22;17169;50.966;11.038;2023-03-01T19:14:42;2.20;99.90
30381;DHT22;17169;50.966;11.038;2023-03-01T19:17:46;2.10;99.90
30381;DHT22;17169;50.966;11.038;2023-03-01T19:20:48;2.10;99.90
30381;DHT22;17169;50.966;11.038;2023-03-01T19:23:58;2.10;99.90
30381;DHT22;17169;50.966;11.038;2023-03-01T19:27:02;2.00;99.90
30381;DHT22;17169;50.966;11.038;2023-03-01T19:30:05;2.00;99.90
30381;DHT22;17169;50.966;11.038;2023-03-01T19:33:09;2.00;99.90